createdAt,value
2022-08-03T00:00:16.531Z,95.30
2022-08-03T00:03:03.951Z,95.40
2022-08-03T00:06:04.120Z,94.90
2022-08-03T00:08:53.970Z,94.60
2022-08-03T00:11:41.611Z,95.00
2022-08-03T00:14:28.959Z,95.20
2022-08-03T00:17:16.227Z,95.30
2022-08-03T00:20:03.509Z,94.80
2022-08-03T00:22:51.527Z,94.50
2022-08-03T00:25:41.242Z,94.90
2022-08-03T00:28:28.636Z,94.50
2022-08-03T00:31:16.093Z,94.40
2022-08-03T00:34:04.226Z,94.40
2022-08-03T00:36:51.735Z,94.40
2022-08-03T00:39:39.245Z,93.80
2022-08-03T00:42:28.651Z,93.90
2022-08-03T00:45:16.084Z,93.20
2022-08-03T00:48:04.656Z,93.60
2022-08-03T00:50:52.684Z,94.10
2022-08-03T00:53:41.440Z,94.40
2022-08-03T00:56:28.894Z,94.50
2022-08-03T00:59:17.987Z,94.70
2022-08-03T01:02:05.907Z,94.40
2022-08-03T01:04:53.460Z,94.20
2022-08-03T01:07:57.184Z,94.30
2022-08-03T01:10:56.054Z,94.10
2022-08-03T01:14:03.929Z,94.20
2022-08-03T01:17:06.661Z,93.80
2022-08-03T01:20:02.119Z,93.90
2022-08-03T01:23:24.237Z,93.90
2022-08-03T01:26:44.178Z,92.70
2022-08-03T01:30:00.524Z,93.10
2022-08-03T01:33:00.693Z,93.30
2022-08-03T01:35:55.232Z,93.70
2022-08-03T01:38:45.914Z,93.80
2022-08-03T01:41:41.036Z,94.00
2022-08-03T01:44:32.135Z,94.00
2022-08-03T01:47:22.413Z,94.40
2022-08-03T01:50:12.790Z,94.50
2022-08-03T01:53:01.095Z,94.40
2022-08-03T01:55:51.091Z,93.10
2022-08-03T01:58:40.094Z,93.20
2022-08-03T02:02:32.145Z,93.60
2022-08-03T02:04:40.914Z,93.40
2022-08-03T02:07:30.391Z,92.50
2022-08-03T02:10:34.667Z,93.40
2022-08-03T02:13:24.629Z,92.90
2022-08-03T02:16:13.146Z,93.60
2022-08-03T02:19:03.321Z,93.70
2022-08-03T02:21:56.286Z,93.90
2022-08-03T02:24:51.249Z,94.00
2022-08-03T02:27:47.368Z,94.60
2022-08-03T02:30:39.147Z,93.80
2022-08-03T02:33:32.767Z,92.70
2022-08-03T02:36:25.342Z,93.00
2022-08-03T02:39:22.216Z,93.60
2022-08-03T02:42:12.812Z,93.90
2022-08-03T02:45:05.444Z,93.90
2022-08-03T02:47:58.132Z,93.60
2022-08-03T02:50:46.605Z,93.90
2022-08-03T02:53:36.213Z,93.50
2022-08-03T02:56:26.910Z,93.90
2022-08-03T02:59:15.268Z,93.30
2022-08-03T03:02:03.949Z,93.90
2022-08-03T03:05:50.660Z,93.20
2022-08-03T03:08:01.370Z,93.30
2022-08-03T03:10:53.205Z,93.70
2022-08-03T03:13:45.216Z,93.90
2022-08-03T03:16:33.788Z,93.70
2022-08-03T03:19:23.119Z,94.00
2022-08-03T03:22:11.253Z,94.10
2022-08-03T03:24:58.903Z,94.00
2022-08-03T03:27:49.417Z,94.20
2022-08-03T03:30:40.016Z,94.00
2022-08-03T03:33:28.594Z,94.10
2022-08-03T03:36:16.212Z,93.80
2022-08-03T03:39:16.075Z,93.90
2022-08-03T03:42:05.062Z,94.30
2022-08-03T03:44:52.794Z,93.90
2022-08-03T03:47:42.107Z,93.80
2022-08-03T03:50:31.508Z,93.40
2022-08-03T03:53:19.122Z,92.20
2022-08-03T03:56:06.522Z,92.80
2022-08-03T03:58:54.607Z,93.30
2022-08-03T04:01:42.335Z,93.10
2022-08-03T04:04:50.620Z,93.10
2022-08-03T04:08:07.810Z,92.70
2022-08-03T04:11:08.600Z,93.30
2022-08-03T04:14:01.738Z,93.20
2022-08-03T04:16:53.578Z,94.00
2022-08-03T04:19:46.378Z,93.10
2022-08-03T04:22:35.731Z,93.20
2022-08-03T04:25:26.250Z,92.30
2022-08-03T04:28:30.343Z,91.30
2022-08-03T04:31:22.436Z,91.20
2022-08-03T04:34:11.372Z,91.10
2022-08-03T04:37:04.806Z,91.50
2022-08-03T04:39:56.932Z,91.40
2022-08-03T04:42:46.447Z,91.60
2022-08-03T04:45:37.424Z,91.20
2022-08-03T04:48:28.027Z,91.50
2022-08-03T04:51:17.024Z,91.30
2022-08-03T04:54:07.566Z,91.80
2022-08-03T04:56:55.254Z,90.20
2022-08-03T04:59:43.252Z,91.60
2022-08-03T05:02:33.163Z,91.80
2022-08-03T05:05:24.782Z,91.70
2022-08-03T05:08:12.444Z,91.80
2022-08-03T05:11:02.686Z,91.60
2022-08-03T05:13:50.603Z,91.50
2022-08-03T05:16:38.366Z,91.90
2022-08-03T05:19:26.676Z,92.10
2022-08-03T05:22:15.445Z,92.00
2022-08-03T05:25:04.223Z,92.00
2022-08-03T05:27:53.857Z,92.30
2022-08-03T05:30:41.804Z,91.60
2022-08-03T05:33:30.089Z,91.90
2022-08-03T05:36:18.010Z,92.10
2022-08-03T05:39:05.757Z,92.20
2022-08-03T05:41:53.608Z,92.20
2022-08-03T05:44:43.422Z,92.40
2022-08-03T05:47:31.696Z,92.30
2022-08-03T05:50:21.740Z,92.40
2022-08-03T05:53:09.972Z,92.90
2022-08-03T05:56:02.319Z,93.10
2022-08-03T05:59:16.322Z,93.00
2022-08-03T06:02:10.860Z,92.90
2022-08-03T06:04:59.024Z,92.90
2022-08-03T06:07:46.875Z,93.10
2022-08-03T06:10:37.984Z,93.30
2022-08-03T06:13:26.332Z,93.10
2022-08-03T06:16:14.483Z,93.20
2022-08-03T06:19:05.373Z,93.30
2022-08-03T06:21:53.588Z,93.50
2022-08-03T06:24:53.213Z,93.60
2022-08-03T06:27:42.099Z,93.00
2022-08-03T06:30:29.891Z,93.80
2022-08-03T06:33:17.894Z,93.40
2022-08-03T06:36:07.827Z,93.50
2022-08-03T06:38:55.702Z,93.50
2022-08-03T06:41:44.728Z,93.90
2022-08-03T06:44:33.076Z,94.30
2022-08-03T06:47:21.127Z,94.40
2022-08-03T06:50:16.166Z,94.40
2022-08-03T06:53:06.970Z,93.70
2022-08-03T06:55:55.603Z,94.10
2022-08-03T06:58:44.435Z,94.50
2022-08-03T07:01:33.009Z,94.60
2022-08-03T07:04:21.540Z,94.50
2022-08-03T07:07:11.248Z,94.10
2022-08-03T07:10:02.204Z,94.90
2022-08-03T07:12:52.724Z,94.30
2022-08-03T07:15:55.728Z,94.30
2022-08-03T07:18:44.471Z,93.70
2022-08-03T07:21:32.990Z,94.10
2022-08-03T07:24:21.263Z,94.50
2022-08-03T07:27:11.084Z,94.70
2022-08-03T07:30:00.629Z,93.60
2022-08-03T07:32:50.606Z,94.00
2022-08-03T07:35:39.156Z,94.20
2022-08-03T07:38:27.071Z,94.60
2022-08-03T07:41:15.263Z,93.70
2022-08-03T07:44:04.838Z,92.90
2022-08-03T07:46:53.265Z,94.00
2022-08-03T07:49:42.570Z,93.90
2022-08-03T07:52:49.791Z,94.50
2022-08-03T07:55:38.304Z,94.30
2022-08-03T07:58:26.377Z,94.30
2022-08-03T08:01:17.373Z,94.00
2022-08-03T08:04:05.778Z,94.30
2022-08-03T08:07:05.499Z,94.50
2022-08-03T08:09:53.493Z,93.60
2022-08-03T08:12:41.964Z,93.70
2022-08-03T08:15:32.958Z,93.70
2022-08-03T08:18:22.278Z,94.10
2022-08-03T08:21:10.397Z,94.20
2022-08-03T08:23:58.186Z,93.80
2022-08-03T08:26:55.294Z,93.50
2022-08-03T08:29:52.566Z,93.50
2022-08-03T08:32:43.370Z,93.80
2022-08-03T08:35:35.770Z,93.40
2022-08-03T08:38:24.534Z,92.20
2022-08-03T08:41:14.218Z,93.30
2022-08-03T08:44:02.834Z,93.30
2022-08-03T08:46:51.469Z,91.90
2022-08-03T08:49:53.422Z,92.00
2022-08-03T08:52:53.710Z,92.10
2022-08-03T08:55:58.601Z,91.20
2022-08-03T08:58:56.264Z,91.90
2022-08-03T09:01:44.632Z,90.90
2022-08-03T09:04:33.706Z,91.00
2022-08-03T09:07:21.625Z,90.00
2022-08-03T09:10:13.894Z,91.00
2022-08-03T09:13:01.992Z,90.40
2022-08-03T09:16:01.098Z,90.50
2022-08-03T09:18:54.547Z,90.70
2022-08-03T09:21:42.592Z,88.70
2022-08-03T09:24:41.143Z,89.40
2022-08-03T09:27:31.148Z,89.40
2022-08-03T09:30:34.447Z,89.80
2022-08-03T09:33:24.530Z,89.00
2022-08-03T09:36:37.617Z,89.60
2022-08-03T09:39:42.166Z,86.00
2022-08-03T09:42:31.697Z,86.90
2022-08-03T09:45:28.674Z,85.20
2022-08-03T09:48:25.496Z,83.30
2022-08-03T09:51:33.283Z,85.00
2022-08-03T09:54:34.332Z,86.60
2022-08-03T09:57:24.133Z,83.40
2022-08-03T10:00:16.562Z,86.80
2022-08-03T10:03:06.264Z,82.50
2022-08-03T10:05:59.349Z,81.10
2022-08-03T10:08:47.914Z,83.50
2022-08-03T10:11:40.947Z,84.60
2022-08-03T10:14:31.881Z,83.50
2022-08-03T10:17:21.433Z,81.90
2022-08-03T10:20:12.236Z,81.50
2022-08-03T10:23:01.710Z,79.40
2022-08-03T10:25:54.607Z,80.30
2022-08-03T10:28:50.413Z,80.50
2022-08-03T10:31:55.904Z,79.10
2022-08-03T10:34:48.307Z,78.50
2022-08-03T10:37:43.207Z,79.20
2022-08-03T10:40:49.981Z,77.60
2022-08-03T10:43:55.469Z,78.70
2022-08-03T10:46:45.438Z,76.60
2022-08-03T10:49:35.709Z,78.40
2022-08-03T10:52:32.822Z,78.80
2022-08-03T10:55:56.527Z,75.40
2022-08-03T10:58:53.296Z,74.70
2022-08-03T11:01:59.945Z,73.80
2022-08-03T11:04:48.607Z,73.60
2022-08-03T11:07:37.687Z,77.20
2022-08-03T11:10:34.863Z,75.10
2022-08-03T11:13:25.588Z,72.70
2022-08-03T11:16:23.606Z,74.90
2022-08-03T11:19:14.218Z,74.10
2022-08-03T11:22:02.150Z,77.00
2022-08-03T11:25:04.659Z,76.50
2022-08-03T11:28:30.648Z,74.10
2022-08-03T11:31:50.877Z,72.50
2022-08-03T11:35:10.291Z,73.50
2022-08-03T11:38:15.788Z,74.30
2022-08-03T11:41:03.816Z,72.90
2022-08-03T11:43:53.386Z,73.60
2022-08-03T11:46:41.847Z,72.60
2022-08-03T11:49:29.549Z,72.10
2022-08-03T11:52:27.210Z,75.20
2022-08-03T11:55:20.733Z,73.50
2022-08-03T11:59:00.955Z,72.80
2022-08-03T12:01:23.036Z,73.70
2022-08-03T12:04:11.911Z,71.90
2022-08-03T12:07:01.281Z,74.40
2022-08-03T12:10:08.091Z,74.60
2022-08-03T12:12:57.873Z,75.30
2022-08-03T12:15:52.416Z,73.70
2022-08-03T12:18:43.696Z,74.30
2022-08-03T12:21:32.402Z,73.10
2022-08-03T12:24:20.937Z,74.80
2022-08-03T12:27:08.927Z,72.10
2022-08-03T12:29:59.275Z,73.00
2022-08-03T12:32:47.684Z,71.60
2022-08-03T12:35:37.212Z,71.30
2022-08-03T12:38:25.380Z,69.20
2022-08-03T12:41:19.187Z,70.00
2022-08-03T12:44:09.420Z,69.60
2022-08-03T12:47:00.202Z,71.40
2022-08-03T12:49:48.252Z,69.50
2022-08-03T12:52:45.284Z,72.10
2022-08-03T12:55:57.753Z,69.80
2022-08-03T12:58:43.641Z,69.60
2022-08-03T13:01:54.953Z,71.40
2022-08-03T13:04:43.744Z,67.50
2022-08-03T13:07:45.675Z,70.70
2022-08-03T13:10:35.288Z,69.40
2022-08-03T13:13:41.326Z,70.70
2022-08-03T13:16:29.316Z,68.80
2022-08-03T13:19:17.031Z,70.30
2022-08-03T13:22:13.717Z,70.40
2022-08-03T13:25:03.878Z,67.50
2022-08-03T13:28:05.378Z,69.80
2022-08-03T13:30:54.854Z,69.40
2022-08-03T13:33:43.065Z,69.60
2022-08-03T13:36:42.761Z,68.00
2022-08-03T13:39:57.422Z,69.10
2022-08-03T13:42:48.425Z,71.00
2022-08-03T13:45:36.945Z,68.50
2022-08-03T13:48:37.208Z,69.20
2022-08-03T13:51:26.897Z,69.80
2022-08-03T13:54:15.108Z,68.00
2022-08-03T13:58:03.294Z,69.40
2022-08-03T14:00:27.966Z,67.60
2022-08-03T14:03:17.236Z,68.60
2022-08-03T14:06:05.216Z,71.80
2022-08-03T14:08:53.977Z,71.40
2022-08-03T14:12:04.089Z,69.40
2022-08-03T14:14:56.021Z,70.00
2022-08-03T14:17:50.101Z,68.20
2022-08-03T14:20:47.824Z,67.80
2022-08-03T14:23:41.653Z,65.80
2022-08-03T14:26:30.472Z,67.40
2022-08-03T14:29:18.227Z,68.90
2022-08-03T14:32:12.095Z,68.40
2022-08-03T14:35:02.501Z,66.30
2022-08-03T14:37:51.941Z,65.60
2022-08-03T14:40:39.882Z,66.70
2022-08-03T14:43:33.999Z,66.90
2022-08-03T14:46:22.385Z,65.40
2022-08-03T14:50:36.927Z,66.70
2022-08-03T14:52:19.960Z,67.20
2022-08-03T14:55:08.814Z,66.00
2022-08-03T14:57:56.556Z,66.50
2022-08-03T15:00:44.661Z,66.30
2022-08-03T15:03:32.606Z,65.80
2022-08-03T15:06:20.908Z,66.70
2022-08-03T15:09:21.596Z,67.80
2022-08-03T15:12:11.390Z,67.80
2022-08-03T15:14:59.526Z,66.40
2022-08-03T15:18:00.110Z,66.10
2022-08-03T15:20:50.815Z,66.40
2022-08-03T15:23:39.014Z,64.80
2022-08-03T15:26:35.366Z,64.90
2022-08-03T15:30:07.059Z,65.30
2022-08-03T15:32:35.726Z,65.90
2022-08-03T15:35:23.579Z,67.40
2022-08-03T15:38:11.786Z,66.10
2022-08-03T15:40:59.560Z,66.60
2022-08-03T15:43:48.665Z,65.30
2022-08-03T15:46:36.526Z,64.30
2022-08-03T15:49:24.647Z,65.30
2022-08-03T15:52:12.659Z,65.10
2022-08-03T15:55:00.403Z,65.50
2022-08-03T15:59:09.578Z,65.60
2022-08-03T16:00:58.188Z,66.50
2022-08-03T16:03:46.134Z,64.70
2022-08-03T16:06:35.523Z,65.90
2022-08-03T16:09:42.728Z,65.30
2022-08-03T16:12:31.732Z,66.30
2022-08-03T16:15:19.519Z,65.50
2022-08-03T16:18:08.917Z,65.50
2022-08-03T16:20:56.786Z,66.00
2022-08-03T16:23:47.315Z,64.90
2022-08-03T16:26:35.301Z,66.60
2022-08-03T16:29:23.783Z,64.80
2022-08-03T16:32:11.734Z,64.70
2022-08-03T16:35:02.155Z,64.30
2022-08-03T16:37:54.688Z,62.70
2022-08-03T16:40:45.956Z,63.80
2022-08-03T16:43:34.881Z,64.60
2022-08-03T16:46:23.418Z,64.90
2022-08-03T16:49:11.181Z,63.60
2022-08-03T16:52:00.969Z,63.50
2022-08-03T16:54:50.776Z,65.00
2022-08-03T16:57:59.549Z,64.80
2022-08-03T17:00:48.417Z,65.50
2022-08-03T17:03:42.638Z,64.90
2022-08-03T17:06:49.099Z,65.10
2022-08-03T17:09:39.116Z,64.90
2022-08-03T17:12:34.246Z,65.20
2022-08-03T17:15:38.438Z,65.20
2022-08-03T17:18:36.082Z,65.60
2022-08-03T17:21:29.575Z,65.70
2022-08-03T17:24:26.586Z,66.00
2022-08-03T17:28:48.491Z,66.50
2022-08-03T17:30:49.608Z,65.80
2022-08-03T17:33:39.471Z,66.60
2022-08-03T17:36:47.670Z,66.20
2022-08-03T17:39:57.567Z,66.80
2022-08-03T17:42:50.853Z,66.40
2022-08-03T17:45:52.190Z,66.40
2022-08-03T17:48:42.156Z,66.00
2022-08-03T17:51:33.402Z,67.10
2022-08-03T17:58:02.206Z,67.30
2022-08-03T18:01:59.778Z,67.00
2022-08-03T18:04:29.999Z,68.00
2022-08-03T18:07:21.831Z,68.30
2022-08-03T18:10:15.419Z,68.70
2022-08-03T18:13:10.876Z,69.10
2022-08-03T18:16:02.416Z,69.10
2022-08-03T18:18:54.783Z,69.50
2022-08-03T18:22:03.633Z,69.90
2022-08-03T18:24:53.748Z,69.20
2022-08-03T18:27:45.970Z,68.80
2022-08-03T18:30:54.699Z,68.30
2022-08-03T18:36:54.771Z,66.90
2022-08-03T18:39:49.597Z,66.20
2022-08-03T18:42:40.533Z,67.10
2022-08-03T18:45:55.836Z,65.80
2022-08-03T18:48:55.611Z,65.70
2022-08-03T18:51:56.917Z,69.80
2022-08-03T18:55:03.830Z,70.50
2022-08-03T18:58:15.883Z,72.20
2022-08-03T19:01:57.752Z,96.20
2022-08-03T19:04:33.247Z,99.90
2022-08-03T19:07:28.859Z,99.90
2022-08-03T19:10:27.080Z,99.90
2022-08-03T19:13:35.874Z,99.90
2022-08-03T19:16:34.242Z,99.90
2022-08-03T19:19:24.696Z,99.90
2022-08-03T19:22:15.997Z,99.90
2022-08-03T19:25:06.341Z,99.90
2022-08-03T19:28:03.137Z,99.90
2022-08-03T19:30:55.295Z,99.90
2022-08-03T19:33:55.721Z,99.90
2022-08-03T19:36:50.012Z,99.90
2022-08-03T19:39:38.937Z,99.90
2022-08-03T19:42:32.418Z,99.90
2022-08-03T19:46:06.343Z,99.90
2022-08-03T19:48:54.136Z,99.90
2022-08-03T19:51:58.561Z,99.90
2022-08-03T19:54:54.697Z,99.90
2022-08-03T19:57:49.246Z,99.90
2022-08-03T20:00:40.927Z,99.90
2022-08-03T20:03:43.315Z,99.90
2022-08-03T20:06:33.424Z,99.90
2022-08-03T20:09:24.533Z,99.90
2022-08-03T20:12:19.391Z,99.90
2022-08-03T20:15:22.254Z,99.90
2022-08-03T20:18:19.472Z,99.90
2022-08-03T20:21:19.211Z,99.90
2022-08-03T20:24:23.326Z,99.90
2022-08-03T20:27:16.739Z,99.90
2022-08-03T20:30:07.451Z,99.90
2022-08-03T20:32:55.998Z,99.90
2022-08-03T20:35:45.907Z,99.90
2022-08-03T20:38:43.723Z,99.90
2022-08-03T20:41:36.797Z,99.90
2022-08-03T20:47:35.900Z,99.90
2022-08-03T20:50:23.940Z,99.90
2022-08-03T20:53:12.835Z,99.90
2022-08-03T20:56:02.854Z,99.90
2022-08-03T20:58:53.190Z,99.90
2022-08-03T21:01:40.905Z,99.90
2022-08-03T21:04:32.262Z,99.90
2022-08-03T21:07:22.930Z,99.90
2022-08-03T21:10:15.777Z,99.90
2022-08-03T21:12:55.595Z,67.10
2022-08-03T21:12:58.400Z,66.10
2022-08-03T21:13:13.183Z,99.90
2022-08-03T21:13:18.862Z,99.90
2022-08-03T21:16:14.055Z,99.90
2022-08-03T21:19:05.296Z,99.90
2022-08-03T21:21:55.472Z,99.90
2022-08-03T21:24:45.582Z,99.90
2022-08-03T21:27:34.212Z,99.90
2022-08-03T21:30:23.435Z,99.90
2022-08-03T21:33:12.645Z,99.90
2022-08-03T21:36:02.037Z,99.90
2022-08-03T21:38:55.838Z,99.90
2022-08-03T21:41:44.587Z,99.90
2022-08-03T21:44:32.846Z,99.90
2022-08-03T21:47:23.237Z,99.90
2022-08-03T21:50:14.987Z,99.90
2022-08-03T21:53:02.995Z,99.90
2022-08-03T21:55:59.464Z,99.90
2022-08-03T21:58:52.732Z,99.90
2022-08-03T22:01:45.739Z,99.90
2022-08-03T22:04:53.293Z,99.90
2022-08-03T22:07:46.626Z,99.90
2022-08-03T22:10:35.229Z,99.90
2022-08-03T22:13:43.590Z,99.90
2022-08-03T22:16:32.175Z,99.90
2022-08-03T22:19:20.062Z,99.90
2022-08-03T22:22:14.009Z,99.90
2022-08-03T22:25:11.697Z,99.90
2022-08-03T22:28:02.435Z,99.90
2022-08-03T22:30:50.503Z,99.90
2022-08-03T22:33:39.479Z,99.90
2022-08-03T22:36:28.154Z,99.90
2022-08-03T22:39:25.658Z,99.90
2022-08-03T22:42:16.227Z,99.90
2022-08-03T22:45:07.171Z,99.90
2022-08-03T22:47:57.218Z,99.90
2022-08-03T22:50:46.224Z,99.90
2022-08-03T22:53:34.526Z,99.90
2022-08-03T22:56:22.611Z,99.90
2022-08-03T22:59:40.858Z,99.90
2022-08-03T23:02:21.823Z,99.90
2022-08-03T23:06:01.319Z,99.90
2022-08-03T23:08:26.534Z,99.90
2022-08-03T23:11:15.900Z,99.90
2022-08-03T23:14:08.751Z,99.90
2022-08-03T23:17:00.765Z,99.90
2022-08-03T23:19:48.917Z,99.90
2022-08-03T23:22:42.853Z,99.90
2022-08-03T23:25:31.184Z,99.90
2022-08-03T23:28:19.779Z,99.90
2022-08-03T23:31:09.939Z,99.90
2022-08-03T23:34:19.292Z,99.90
2022-08-03T23:37:07.521Z,99.90
2022-08-03T23:39:56.253Z,99.90
2022-08-03T23:42:47.617Z,99.90
2022-08-03T23:45:37.798Z,99.90
2022-08-03T23:48:26.002Z,99.90
2022-08-03T23:51:27.932Z,99.90
2022-08-03T23:54:34.251Z,99.90
2022-08-03T23:57:32.556Z,99.90
